sensor_id;sensor_type;location;lat;lon;timestamp;pressure;altitude;pressure_sealevel;temperature;humidity
41886;BME280;27567;43.084;25.616;2023-04-24T00:02:16;97958.88;;;10.09;100.00
41886;BME280;27567;43.084;25.616;2023-04-24T00:05:01;97952.69;;;10.08;100.00
41886;BME280;27567;43.084;25.616;2023-04-24T00:07:46;97951.25;;;10.06;100.00
41886;BME280;27567;43.084;25.616;2023-04-24T00:10:30;97946.53;;;10.01;100.00
41886;BME280;27567;43.084;25.616;2023-04-24T00:13:14;97936.63;;;10.02;100.00
41886;BME280;27567;43.084;25.616;2023-04-24T00:15:58;97948.97;;;10.03;100.00
41886;BME280;27567;43.084;25.616;2023-04-24T00:18:42;97931.72;;;9.99;100.00
41886;BME280;27567;43.084;25.616;2023-04-24T00:21:26;97947.13;;;10.03;100.00
41886;BME280;27567;43.084;25.616;2023-04-24T00:24:10;97934.16;;;10.00;100.00
41886;BME280;27567;43.084;25.616;2023-04-24T00:26:54;97945.09;;;10.05;100.00
41886;BME280;27567;43.084;25.616;2023-04-24T00:29:38;97933.97;;;9.95;100.00
41886;BME280;27567;43.084;25.616;2023-04-24T00:32:22;97932.72;;;9.84;100.00
41886;BME280;27567;43.084;25.616;2023-04-24T00:35:06;97936.03;;;9.86;100.00
41886;BME280;27567;43.084;25.616;2023-04-24T00:37:50;97935.41;;;9.91;100.00
41886;BME280;27567;43.084;25.616;2023-04-24T00:40:34;97927.59;;;9.89;100.00
41886;BME280;27567;43.084;25.616;2023-04-24T00:43:18;97925.13;;;9.95;100.00
41886;BME280;27567;43.084;25.616;2023-04-24T00:46:02;97925.13;;;9.95;100.00
41886;BME280;27567;43.084;25.616;2023-04-24T00:48:47;97925.28;;;10.00;100.00
41886;BME280;27567;43.084;25.616;2023-04-24T00:51:32;97929.84;;;9.92;100.00
41886;BME280;27567;43.084;25.616;2023-04-24T00:54:16;97922.03;;;9.84;100.00
41886;BME280;27567;43.084;25.616;2023-04-24T00:57:02;97921.00;;;9.72;100.00
41886;BME280;27567;43.084;25.616;2023-04-24T00:59:46;97920.38;;;9.70;100.00
41886;BME280;27567;43.084;25.616;2023-04-24T01:02:30;97917.28;;;9.80;100.00
41886;BME280;27567;43.084;25.616;2023-04-24T01:05:18;97923.88;;;9.77;100.00
41886;BME280;27567;43.084;25.616;2023-04-24T01:08:02;97920.16;;;9.78;100.00
41886;BME280;27567;43.084;25.616;2023-04-24T01:10:47;97915.84;;;9.77;100.00
41886;BME280;27567;43.084;25.616;2023-04-24T01:13:33;97924.09;;;9.75;100.00
41886;BME280;27567;43.084;25.616;2023-04-24T01:16:17;97924.72;;;9.77;100.00
41886;BME280;27567;43.084;25.616;2023-04-24T01:19:06;97919.34;;;9.77;100.00
41886;BME280;27567;43.084;25.616;2023-04-24T01:21:53;97918.53;;;9.70;100.00
41886;BME280;27567;43.084;25.616;2023-04-24T01:24:38;97915.00;;;9.63;100.00
41886;BME280;27567;43.084;25.616;2023-04-24T01:27:22;97912.13;;;9.71;100.00
41886;BME280;27567;43.084;25.616;2023-04-24T01:30:07;97912.56;;;9.68;100.00
41886;BME280;27567;43.084;25.616;2023-04-24T01:32:52;97913.19;;;9.57;100.00
41886;BME280;27567;43.084;25.616;2023-04-24T01:35:37;97901.03;;;9.47;100.00
41886;BME280;27567;43.084;25.616;2023-04-24T01:38:21;97906.19;;;9.56;100.00
41886;BME280;27567;43.084;25.616;2023-04-24T01:41:05;97902.44;;;9.43;100.00
41886;BME280;27567;43.084;25.616;2023-04-24T01:43:50;97899.38;;;9.53;100.00
41886;BME280;27567;43.084;25.616;2023-04-24T01:46:34;97902.25;;;9.58;100.00
41886;BME280;27567;43.084;25.616;2023-04-24T01:49:19;97896.28;;;9.56;100.00
41886;BME280;27567;43.084;25.616;2023-04-24T01:52:04;97895.25;;;9.57;100.00
41886;BME280;27567;43.084;25.616;2023-04-24T01:54:48;97890.94;;;9.56;100.00
41886;BME280;27567;43.084;25.616;2023-04-24T01:57:33;97895.06;;;9.66;100.00
41886;BME280;27567;43.084;25.616;2023-04-24T02:00:17;97892.16;;;9.60;100.00
41886;BME280;27567;43.084;25.616;2023-04-24T02:03:01;97880.84;;;9.65;100.00
41886;BME280;27567;43.084;25.616;2023-04-24T02:05:45;97878.16;;;9.65;100.00
41886;BME280;27567;43.084;25.616;2023-04-24T02:08:29;97885.78;;;9.82;100.00
41886;BME280;27567;43.084;25.616;2023-04-24T02:11:13;97879.81;;;9.80;100.00
41886;BME280;27567;43.084;25.616;2023-04-24T02:13:57;97879.63;;;9.68;100.00
41886;BME280;27567;43.084;25.616;2023-04-24T02:16:41;97869.53;;;9.70;100.00
41886;BME280;27567;43.084;25.616;2023-04-24T02:19:26;97868.06;;;9.67;100.00
41886;BME280;27567;43.084;25.616;2023-04-24T02:22:10;97863.34;;;9.62;100.00
41886;BME280;27567;43.084;25.616;2023-04-24T02:24:55;97863.56;;;9.54;100.00
41886;BME280;27567;43.084;25.616;2023-04-24T02:27:39;97865.41;;;9.54;100.00
41886;BME280;27567;43.084;25.616;2023-04-24T02:30:22;97865.81;;;9.51;100.00
41886;BME280;27567;43.084;25.616;2023-04-24T02:33:06;97857.38;;;9.54;100.00
41886;BME280;27567;43.084;25.616;2023-04-24T02:35:51;97862.94;;;9.45;100.00
41886;BME280;27567;43.084;25.616;2023-04-24T02:38:35;97862.13;;;9.45;100.00
41886;BME280;27567;43.084;25.616;2023-04-24T02:41:19;97863.34;;;9.36;100.00
41886;BME280;27567;43.084;25.616;2023-04-24T02:44:03;97846.88;;;9.18;100.00
41886;BME280;27567;43.084;25.616;2023-04-24T02:46:47;97856.34;;;9.21;100.00
41886;BME280;27567;43.084;25.616;2023-04-24T02:49:31;97846.88;;;9.18;100.00
41886;BME280;27567;43.084;25.616;2023-04-24T02:52:15;97853.69;;;9.14;100.00
41886;BME280;27567;43.084;25.616;2023-04-24T02:55:00;97858.59;;;9.04;100.00
41886;BME280;27567;43.084;25.616;2023-04-24T02:57:44;97852.81;;;8.94;100.00
41886;BME280;27567;43.084;25.616;2023-04-24T03:00:28;97858.59;;;8.91;100.00
41886;BME280;27567;43.084;25.616;2023-04-24T03:03:13;97851.78;;;8.81;100.00
41886;BME280;27567;43.084;25.616;2023-04-24T03:05:57;97852.19;;;8.85;100.00
41886;BME280;27567;43.084;25.616;2023-04-24T03:08:42;97849.09;;;8.81;100.00
41886;BME280;27567;43.084;25.616;2023-04-24T03:11:26;97854.44;;;8.75;100.00
41886;BME280;27567;43.084;25.616;2023-04-24T03:14:10;97849.72;;;8.77;100.00
41886;BME280;27567;43.084;25.616;2023-04-24T03:16:54;97846.81;;;8.71;100.00
41886;BME280;27567;43.084;25.616;2023-04-24T03:19:38;97852.78;;;8.80;100.00
41886;BME280;27567;43.084;25.616;2023-04-24T03:22:22;97854.03;;;8.78;100.00
41886;BME280;27567;43.084;25.616;2023-04-24T03:25:06;97864.25;;;8.61;100.00
41886;BME280;27567;43.084;25.616;2023-04-24T03:27:52;97853.34;;;8.55;100.00
41886;BME280;27567;43.084;25.616;2023-04-24T03:30:38;97857.28;;;8.73;100.00
41886;BME280;27567;43.084;25.616;2023-04-24T03:33:22;97864.28;;;8.81;100.00
41886;BME280;27567;43.084;25.616;2023-04-24T03:36:06;97857.13;;;8.81;100.00
41886;BME280;27567;43.084;25.616;2023-04-24T03:38:50;97861.84;;;8.93;100.00
41886;BME280;27567;43.084;25.616;2023-04-24T03:41:34;97860.22;;;8.92;100.00
41886;BME280;27567;43.084;25.616;2023-04-24T03:44:18;97862.28;;;8.90;100.00
41886;BME280;27567;43.084;25.616;2023-04-24T03:47:02;97860.63;;;8.89;100.00
41886;BME280;27567;43.084;25.616;2023-04-24T03:49:46;97860.81;;;8.87;100.00
41886;BME280;27567;43.084;25.616;2023-04-24T03:52:30;97873.16;;;8.95;100.00
41886;BME280;27567;43.084;25.616;2023-04-24T03:55:14;97866.38;;;8.92;100.00
41886;BME280;27567;43.084;25.616;2023-04-24T03:57:58;97853.03;;;8.85;100.00
41886;BME280;27567;43.084;25.616;2023-04-24T04:00:42;97864.75;;;8.98;100.00
41886;BME280;27567;43.084;25.616;2023-04-24T04:03:28;97854.72;;;9.13;100.00
41886;BME280;27567;43.084;25.616;2023-04-24T04:06:12;97863.75;;;9.26;100.00
41886;BME280;27567;43.084;25.616;2023-04-24T04:08:57;97865.22;;;9.35;100.00
41886;BME280;27567;43.084;25.616;2023-04-24T04:11:41;97868.09;;;9.40;100.00
41886;BME280;27567;43.084;25.616;2023-04-24T04:14:24;97870.78;;;9.47;100.00
41886;BME280;27567;43.084;25.616;2023-04-24T04:17:08;97871.38;;;9.56;100.00
41886;BME280;27567;43.084;25.616;2023-04-24T04:19:52;97879.63;;;9.68;100.00
41886;BME280;27567;43.084;25.616;2023-04-24T04:22:37;97861.88;;;9.80;100.00
41886;BME280;27567;43.084;25.616;2023-04-24T04:25:21;97865.78;;;9.84;100.00
41886;BME280;27567;43.084;25.616;2023-04-24T04:28:05;97877.75;;;9.82;100.00
41886;BME280;27567;43.084;25.616;2023-04-24T04:30:49;97872.59;;;9.93;100.00
41886;BME280;27567;43.084;25.616;2023-04-24T04:33:33;97872.34;;;10.02;100.00
41886;BME280;27567;43.084;25.616;2023-04-24T04:36:17;97882.25;;;9.88;100.00
41886;BME280;27567;43.084;25.616;2023-04-24T04:39:02;97883.69;;;10.11;100.00
41886;BME280;27567;43.084;25.616;2023-04-24T04:41:47;97882.81;;;10.30;100.00
41886;BME280;27567;43.084;25.616;2023-04-24T04:44:32;97880.13;;;10.30;100.00
41886;BME280;27567;43.084;25.616;2023-04-24T04:47:20;97883.38;;;10.46;100.00
41886;BME280;27567;43.084;25.616;2023-04-24T04:50:07;97883.63;;;10.44;100.00
41886;BME280;27567;43.084;25.616;2023-04-24T04:52:51;97879.22;;;10.57;100.00
41886;BME280;27567;43.084;25.616;2023-04-24T04:55:36;97891.56;;;10.64;100.00
41886;BME280;27567;43.084;25.616;2023-04-24T04:58:20;97892.41;;;11.04;100.00
41886;BME280;27567;43.084;25.616;2023-04-24T05:01:04;97894.69;;;11.00;100.00
41886;BME280;27567;43.084;25.616;2023-04-24T05:03:48;97897.44;;;11.25;100.00
41886;BME280;27567;43.084;25.616;2023-04-24T05:06:32;97890.97;;;11.58;100.00
41886;BME280;27567;43.084;25.616;2023-04-24T05:09:17;97901.88;;;12.14;100.00
41886;BME280;27567;43.084;25.616;2023-04-24T05:12:01;97893.44;;;12.29;100.00
41886;BME280;27567;43.084;25.616;2023-04-24T05:14:46;97894.03;;;12.31;100.00
41886;BME280;27567;43.084;25.616;2023-04-24T05:17:30;97881.28;;;12.45;100.00
41886;BME280;27567;43.084;25.616;2023-04-24T05:20:14;97884.31;;;12.49;100.00
41886;BME280;27567;43.084;25.616;2023-04-24T05:22:58;97880.25;;;12.77;100.00
41886;BME280;27567;43.084;25.616;2023-04-24T05:25:42;97882.56;;;12.92;100.00
41886;BME280;27567;43.084;25.616;2023-04-24T05:28:26;97878.41;;;13.08;100.00
41886;BME280;27567;43.084;25.616;2023-04-24T05:31:13;97883.56;;;13.21;100.00
41886;BME280;27567;43.084;25.616;2023-04-24T05:33:57;97885.59;;;13.38;100.00
41886;BME280;27567;43.084;25.616;2023-04-24T05:36:41;97879.13;;;13.27;100.00
41886;BME280;27567;43.084;25.616;2023-04-24T05:39:26;97880.91;;;13.33;100.00
41886;BME280;27567;43.084;25.616;2023-04-24T05:42:11;97879.13;;;13.58;100.00
41886;BME280;27567;43.084;25.616;2023-04-24T05:44:55;97887.22;;;13.70;100.00
41886;BME280;27567;43.084;25.616;2023-04-24T05:47:39;97882.41;;;13.60;100.00
41886;BME280;27567;43.084;25.616;2023-04-24T05:50:23;97883.38;;;14.01;100.00
41886;BME280;27567;43.084;25.616;2023-04-24T05:53:07;97880.19;;;14.04;100.00
41886;BME280;27567;43.084;25.616;2023-04-24T05:55:51;97887.00;;;13.95;100.00
41886;BME280;27567;43.084;25.616;2023-04-24T05:58:35;97880.44;;;13.91;100.00
41886;BME280;27567;43.084;25.616;2023-04-24T06:01:21;97887.00;;;13.83;100.00
41886;BME280;27567;43.084;25.616;2023-04-24T06:04:05;97888.38;;;13.62;100.00
41886;BME280;27567;43.084;25.616;2023-04-24T06:06:49;97876.06;;;13.66;100.00
41886;BME280;27567;43.084;25.616;2023-04-24T06:09:34;97875.75;;;13.74;100.00
41886;BME280;27567;43.084;25.616;2023-04-24T06:12:19;97880.53;;;13.96;100.00
41886;BME280;27567;43.084;25.616;2023-04-24T06:15:03;97878.66;;;14.32;100.00
41886;BME280;27567;43.084;25.616;2023-04-24T06:17:48;97875.66;;;14.69;100.00
41886;BME280;27567;43.084;25.616;2023-04-24T06:20:32;97880.63;;;14.90;100.00
41886;BME280;27567;43.084;25.616;2023-04-24T06:23:16;97878.03;;;15.12;100.00
41886;BME280;27567;43.084;25.616;2023-04-24T06:26:00;97887.00;;;15.46;100.00
41886;BME280;27567;43.084;25.616;2023-04-24T06:28:44;97881.44;;;15.53;100.00
41886;BME280;27567;43.084;25.616;2023-04-24T06:31:28;97879.53;;;15.20;100.00
41886;BME280;27567;43.084;25.616;2023-04-24T06:34:11;97878.59;;;15.43;100.00
41886;BME280;27567;43.084;25.616;2023-04-24T06:36:55;97882.50;;;15.69;100.00
41886;BME280;27567;43.084;25.616;2023-04-24T06:39:39;97871.22;;;15.72;100.00
41886;BME280;27567;43.084;25.616;2023-04-24T06:42:24;97877.19;;;15.74;100.00
41886;BME280;27567;43.084;25.616;2023-04-24T06:45:08;97879.75;;;15.98;100.00
41886;BME280;27567;43.084;25.616;2023-04-24T06:47:53;97875.84;;;16.28;100.00
41886;BME280;27567;43.084;25.616;2023-04-24T06:50:37;97880.19;;;16.29;100.00
41886;BME280;27567;43.084;25.616;2023-04-24T06:53:20;97883.94;;;16.50;100.00
41886;BME280;27567;43.084;25.616;2023-04-24T06:56:04;97878.81;;;16.49;100.00
41886;BME280;27567;43.084;25.616;2023-04-24T06:58:50;97880.44;;;16.72;100.00
41886;BME280;27567;43.084;25.616;2023-04-24T07:01:34;97871.81;;;16.97;100.00
41886;BME280;27567;43.084;25.616;2023-04-24T07:04:18;97874.38;;;17.09;100.00
41886;BME280;27567;43.084;25.616;2023-04-24T07:07:03;97875.19;;;17.37;100.00
41886;BME280;27567;43.084;25.616;2023-04-24T07:09:48;97880.31;;;17.39;100.00
41886;BME280;27567;43.084;25.616;2023-04-24T07:12:33;97875.53;;;17.46;100.00
41886;BME280;27567;43.084;25.616;2023-04-24T07:15:16;97877.47;;;18.31;100.00
41886;BME280;27567;43.084;25.616;2023-04-24T07:18:00;97878.25;;;18.90;100.00
41886;BME280;27567;43.084;25.616;2023-04-24T07:20:44;97871.59;;;19.65;93.70
41886;BME280;27567;43.084;25.616;2023-04-24T07:23:28;97872.91;;;20.15;88.70
41886;BME280;27567;43.084;25.616;2023-04-24T07:26:12;97877.34;;;20.76;81.22
41886;BME280;27567;43.084;25.616;2023-04-24T07:28:58;97876.69;;;20.24;81.37
41886;BME280;27567;43.084;25.616;2023-04-24T07:31:42;97874.22;;;20.38;81.52
41886;BME280;27567;43.084;25.616;2023-04-24T07:34:26;97875.06;;;20.18;81.47
41886;BME280;27567;43.084;25.616;2023-04-24T07:37:10;97867.78;;;19.97;84.11
41886;BME280;27567;43.084;25.616;2023-04-24T07:39:54;97875.66;;;19.99;84.21
41886;BME280;27567;43.084;25.616;2023-04-24T07:42:39;97873.69;;;20.36;82.03
41886;BME280;27567;43.084;25.616;2023-04-24T07:45:23;97881.56;;;20.37;81.18
41886;BME280;27567;43.084;25.616;2023-04-24T07:48:10;97873.44;;;20.11;79.13
41886;BME280;27567;43.084;25.616;2023-04-24T07:50:54;97868.63;;;19.62;77.72
41886;BME280;27567;43.084;25.616;2023-04-24T07:53:38;97875.94;;;19.72;81.07
41886;BME280;27567;43.084;25.616;2023-04-24T07:56:22;97865.72;;;20.55;74.82
41886;BME280;27567;43.084;25.616;2023-04-24T07:59:06;97868.25;;;20.25;73.65
41886;BME280;27567;43.084;25.616;2023-04-24T08:01:50;97866.75;;;20.64;76.24
41886;BME280;27567;43.084;25.616;2023-04-24T08:04:34;97866.66;;;20.14;76.77
41886;BME280;27567;43.084;25.616;2023-04-24T08:07:18;97869.13;;;19.95;74.15
41886;BME280;27567;43.084;25.616;2023-04-24T08:10:02;97860.69;;;19.76;78.92
41886;BME280;27567;43.084;25.616;2023-04-24T08:12:46;97862.00;;;20.30;77.56
41886;BME280;27567;43.084;25.616;2023-04-24T08:15:30;97868.22;;;20.36;74.03
41886;BME280;27567;43.084;25.616;2023-04-24T08:18:14;97863.09;;;20.34;76.94
41886;BME280;27567;43.084;25.616;2023-04-24T08:20:59;97861.59;;;21.18;71.58
41886;BME280;27567;43.084;25.616;2023-04-24T08:23:45;97860.84;;;20.41;74.81
41886;BME280;27567;43.084;25.616;2023-04-24T08:26:29;97864.88;;;20.65;74.71
41886;BME280;27567;43.084;25.616;2023-04-24T08:29:13;97864.03;;;21.20;68.66
41886;BME280;27567;43.084;25.616;2023-04-24T08:31:58;97861.25;;;21.30;69.83
41886;BME280;27567;43.084;25.616;2023-04-24T08:34:42;97865.28;;;21.32;71.84
41886;BME280;27567;43.084;25.616;2023-04-24T08:37:27;97867.38;;;20.51;74.93
41886;BME280;27567;43.084;25.616;2023-04-24T08:40:16;97866.44;;;20.71;74.30
41886;BME280;27567;43.084;25.616;2023-04-24T08:43:00;97868.25;;;20.25;79.07
41886;BME280;27567;43.084;25.616;2023-04-24T08:45:44;97861.28;;;19.88;82.21
41886;BME280;27567;43.084;25.616;2023-04-24T08:48:29;97874.00;;;19.26;84.83
41886;BME280;27567;43.084;25.616;2023-04-24T08:51:13;97869.91;;;19.13;90.38
41886;BME280;27567;43.084;25.616;2023-04-24T08:53:57;97864.50;;;19.80;86.55
41886;BME280;27567;43.084;25.616;2023-04-24T08:56:43;97867.50;;;19.68;90.99
41886;BME280;27567;43.084;25.616;2023-04-24T08:59:30;97866.97;;;19.71;94.33
41886;BME280;27567;43.084;25.616;2023-04-24T09:02:15;97863.16;;;19.57;99.24
41886;BME280;27567;43.084;25.616;2023-04-24T09:05:00;97858.78;;;19.25;100.00
41886;BME280;27567;43.084;25.616;2023-04-24T09:07:49;97856.34;;;19.33;98.76
41886;BME280;27567;43.084;25.616;2023-04-24T09:10:37;97860.97;;;19.69;98.03
41886;BME280;27567;43.084;25.616;2023-04-24T09:13:21;97867.41;;;20.35;94.21
41886;BME280;27567;43.084;25.616;2023-04-24T09:16:05;97870.19;;;20.15;94.48
41886;BME280;27567;43.084;25.616;2023-04-24T09:18:48;97856.56;;;20.30;93.38
41886;BME280;27567;43.084;25.616;2023-04-24T09:21:34;97854.47;;;20.72;88.64
41886;BME280;27567;43.084;25.616;2023-04-24T09:24:20;97841.53;;;21.78;74.50
41886;BME280;27567;43.084;25.616;2023-04-24T09:27:06;97847.34;;;21.96;69.91
41886;BME280;27567;43.084;25.616;2023-04-24T09:29:57;97839.56;;;21.84;68.72
41886;BME280;27567;43.084;25.616;2023-04-24T09:32:42;97838.88;;;21.33;69.08
41886;BME280;27567;43.084;25.616;2023-04-24T09:35:26;97838.03;;;22.02;65.94
41886;BME280;27567;43.084;25.616;2023-04-24T09:38:09;97829.94;;;22.84;54.67
41886;BME280;27567;43.084;25.616;2023-04-24T09:40:54;97827.59;;;22.96;53.08
41886;BME280;27567;43.084;25.616;2023-04-24T09:43:38;97826.63;;;23.25;51.33
41886;BME280;27567;43.084;25.616;2023-04-24T09:46:29;97828.41;;;23.35;50.25
41886;BME280;27567;43.084;25.616;2023-04-24T09:49:16;97832.59;;;22.70;51.43
41886;BME280;27567;43.084;25.616;2023-04-24T09:54:52;97821.22;;;23.20;46.74
41886;BME280;27567;43.084;25.616;2023-04-24T09:57:56;97827.31;;;23.50;46.51
41886;BME280;27567;43.084;25.616;2023-04-24T10:00:40;97822.69;;;23.50;49.01
41886;BME280;27567;43.084;25.616;2023-04-24T10:03:25;97822.56;;;23.41;47.83
41886;BME280;27567;43.084;25.616;2023-04-24T10:06:12;97817.44;;;23.68;47.72
41886;BME280;27567;43.084;25.616;2023-04-24T10:08:56;97816.03;;;22.61;51.86
41886;BME280;27567;43.084;25.616;2023-04-24T10:11:43;97814.31;;;22.46;53.91
41886;BME280;27567;43.084;25.616;2023-04-24T10:14:30;97827.19;;;22.45;55.73
41886;BME280;27567;43.084;25.616;2023-04-24T10:17:14;97813.38;;;21.48;59.95
41886;BME280;27567;43.084;25.616;2023-04-24T10:20:00;97816.75;;;21.99;58.53
41886;BME280;27567;43.084;25.616;2023-04-24T10:22:48;97810.16;;;21.75;56.81
41886;BME280;27567;43.084;25.616;2023-04-24T10:25:35;97815.16;;;22.65;55.93
41886;BME280;27567;43.084;25.616;2023-04-24T10:28:20;97805.47;;;23.64;50.77
41886;BME280;27567;43.084;25.616;2023-04-24T10:31:05;97817.03;;;23.27;52.36
41886;BME280;27567;43.084;25.616;2023-04-24T10:33:51;97820.19;;;22.10;57.43
41886;BME280;27567;43.084;25.616;2023-04-24T10:36:39;97812.31;;;23.80;52.13
41886;BME280;27567;43.084;25.616;2023-04-24T10:39:25;97802.44;;;24.26;48.74
41886;BME280;27567;43.084;25.616;2023-04-24T10:42:16;97807.94;;;23.65;49.55
41886;BME280;27567;43.084;25.616;2023-04-24T10:45:05;97800.44;;;23.38;51.97
41886;BME280;27567;43.084;25.616;2023-04-24T10:48:01;97809.44;;;23.71;48.71
41886;BME280;27567;43.084;25.616;2023-04-24T10:50:48;97805.78;;;23.62;50.45
41886;BME280;27567;43.084;25.616;2023-04-24T10:53:34;97807.66;;;23.48;49.99
41886;BME280;27567;43.084;25.616;2023-04-24T10:56:18;97794.97;;;23.71;49.10
41886;BME280;27567;43.084;25.616;2023-04-24T10:59:07;97802.75;;;23.64;50.09
41886;BME280;27567;43.084;25.616;2023-04-24T11:01:54;97793.75;;;23.30;52.65
41886;BME280;27567;43.084;25.616;2023-04-24T11:04:42;97788.28;;;22.54;56.82
41886;BME280;27567;43.084;25.616;2023-04-24T11:07:26;97793.66;;;21.56;64.01
41886;BME280;27567;43.084;25.616;2023-04-24T11:10:25;97786.44;;;23.25;56.34
41886;BME280;27567;43.084;25.616;2023-04-24T11:13:09;97791.75;;;23.50;55.08
41886;BME280;27567;43.084;25.616;2023-04-24T11:16:20;97786.56;;;23.67;51.96
41886;BME280;27567;43.084;25.616;2023-04-24T11:22:01;97771.16;;;25.92;45.96
41886;BME280;27567;43.084;25.616;2023-04-24T11:27:31;97752.44;;;27.31;42.58
41886;BME280;27567;43.084;25.616;2023-04-24T11:30:18;97758.22;;;29.85;36.37
41886;BME280;27567;43.084;25.616;2023-04-24T11:33:04;97746.00;;;29.62;36.05
41886;BME280;27567;43.084;25.616;2023-04-24T11:35:51;97750.25;;;28.92;36.12
41886;BME280;27567;43.084;25.616;2023-04-24T11:38:34;97753.28;;;27.05;38.87
41886;BME280;27567;43.084;25.616;2023-04-24T11:41:20;97741.50;;;27.79;37.77
41886;BME280;27567;43.084;25.616;2023-04-24T11:44:08;97735.50;;;26.85;40.34
41886;BME280;27567;43.084;25.616;2023-04-24T11:46:55;97737.78;;;28.43;37.33
41886;BME280;27567;43.084;25.616;2023-04-24T11:49:40;97731.66;;;30.84;33.93
41886;BME280;27567;43.084;25.616;2023-04-24T11:52:24;97729.63;;;30.15;33.95
41886;BME280;27567;43.084;25.616;2023-04-24T11:57:58;97724.41;;;22.88;49.87
41886;BME280;27567;43.084;25.616;2023-04-24T12:00:43;97730.13;;;21.85;55.93
41886;BME280;27567;43.084;25.616;2023-04-24T12:03:29;97733.78;;;21.75;57.13
41886;BME280;27567;43.084;25.616;2023-04-24T12:06:13;97729.44;;;21.74;58.26
41886;BME280;27567;43.084;25.616;2023-04-24T12:08:57;97726.28;;;22.11;57.99
41886;BME280;27567;43.084;25.616;2023-04-24T12:11:53;97715.00;;;22.17;57.23
41886;BME280;27567;43.084;25.616;2023-04-24T12:14:49;97704.75;;;23.52;51.90
41886;BME280;27567;43.084;25.616;2023-04-24T12:17:34;97709.56;;;25.12;46.23
41886;BME280;27567;43.084;25.616;2023-04-24T12:20:26;97704.84;;;23.61;51.23
41886;BME280;27567;43.084;25.616;2023-04-24T12:23:10;97708.81;;;22.31;55.74
41886;BME280;27567;43.084;25.616;2023-04-24T12:25:59;97696.44;;;24.78;48.59
41886;BME280;27567;43.084;25.616;2023-04-24T12:28:48;97683.94;;;26.82;42.15
41886;BME280;27567;43.084;25.616;2023-04-24T12:31:35;97683.28;;;25.92;44.13
41886;BME280;27567;43.084;25.616;2023-04-24T12:34:21;97675.50;;;27.61;40.80
41886;BME280;27567;43.084;25.616;2023-04-24T12:37:12;97677.53;;;27.73;41.13
41886;BME280;27567;43.084;25.616;2023-04-24T12:40:00;97671.53;;;24.97;47.27
41886;BME280;27567;43.084;25.616;2023-04-24T12:42:48;97671.91;;;23.94;51.45
41886;BME280;27567;43.084;25.616;2023-04-24T12:45:32;97657.34;;;23.98;52.57
41886;BME280;27567;43.084;25.616;2023-04-24T12:48:16;97664.53;;;23.66;53.64
41886;BME280;27567;43.084;25.616;2023-04-24T12:51:00;97654.34;;;24.59;49.07
41886;BME280;27567;43.084;25.616;2023-04-24T12:53:45;97642.97;;;26.98;40.06
41886;BME280;27567;43.084;25.616;2023-04-24T12:56:29;97639.91;;;26.99;38.66
41886;BME280;27567;43.084;25.616;2023-04-24T12:59:14;97643.03;;;27.75;38.13
41886;BME280;27567;43.084;25.616;2023-04-24T13:01:58;97629.56;;;26.08;37.64
41886;BME280;27567;43.084;25.616;2023-04-24T13:04:42;97638.47;;;22.80;44.30
41886;BME280;27567;43.084;25.616;2023-04-24T13:07:26;97626.50;;;21.80;48.79
41886;BME280;27567;43.084;25.616;2023-04-24T13:10:10;97635.00;;;21.54;49.55
41886;BME280;27567;43.084;25.616;2023-04-24T13:12:54;97617.50;;;23.78;44.63
41886;BME280;27567;43.084;25.616;2023-04-24T13:15:38;97612.91;;;27.79;36.23
41886;BME280;27567;43.084;25.616;2023-04-24T13:18:22;97605.28;;;29.65;33.49
41886;BME280;27567;43.084;25.616;2023-04-24T13:21:06;97618.06;;;29.58;33.42
41886;BME280;27567;43.084;25.616;2023-04-24T13:23:50;97609.31;;;29.68;33.02
41886;BME280;27567;43.084;25.616;2023-04-24T13:26:35;97606.88;;;30.04;32.64
41886;BME280;27567;43.084;25.616;2023-04-24T13:29:20;97609.50;;;32.89;30.57
41886;BME280;27567;43.084;25.616;2023-04-24T13:32:03;97605.75;;;30.90;34.58
41886;BME280;27567;43.084;25.616;2023-04-24T13:34:48;97618.91;;;27.34;41.38
41886;BME280;27567;43.084;25.616;2023-04-24T13:37:32;97608.34;;;27.44;42.80
41886;BME280;27567;43.084;25.616;2023-04-24T13:40:16;97593.81;;;26.79;44.04
41886;BME280;27567;43.084;25.616;2023-04-24T13:43:00;97601.88;;;23.79;54.12
41886;BME280;27567;43.084;25.616;2023-04-24T13:45:44;97599.75;;;23.06;61.68
41886;BME280;27567;43.084;25.616;2023-04-24T13:48:29;97608.97;;;22.63;65.26
41886;BME280;27567;43.084;25.616;2023-04-24T13:51:14;97606.41;;;22.86;65.23
41886;BME280;27567;43.084;25.616;2023-04-24T13:53:58;97605.19;;;22.40;66.21
41886;BME280;27567;43.084;25.616;2023-04-24T13:56:43;97600.16;;;22.14;68.47
41886;BME280;27567;43.084;25.616;2023-04-24T13:59:27;97590.59;;;21.00;76.86
41886;BME280;27567;43.084;25.616;2023-04-24T14:02:11;97587.69;;;22.07;69.07
41886;BME280;27567;43.084;25.616;2023-04-24T14:04:55;97587.03;;;21.97;70.62
41886;BME280;27567;43.084;25.616;2023-04-24T14:07:39;97585.09;;;21.78;70.82
41886;BME280;27567;43.084;25.616;2023-04-24T14:10:23;97595.63;;;20.87;77.38
41886;BME280;27567;43.084;25.616;2023-04-24T14:13:07;97589.28;;;20.63;80.47
41886;BME280;27567;43.084;25.616;2023-04-24T14:15:51;97586.84;;;20.61;77.97
41886;BME280;27567;43.084;25.616;2023-04-24T14:18:36;97580.31;;;20.27;80.65
41886;BME280;27567;43.084;25.616;2023-04-24T14:21:20;97581.34;;;21.25;75.49
41886;BME280;27567;43.084;25.616;2023-04-24T14:24:04;97579.91;;;22.34;66.53
41886;BME280;27567;43.084;25.616;2023-04-24T14:26:49;97562.31;;;24.36;53.05
41886;BME280;27567;43.084;25.616;2023-04-24T14:29:33;97570.56;;;24.90;50.58
41886;BME280;27567;43.084;25.616;2023-04-24T14:32:17;97566.16;;;23.61;53.11